createdAt,value
2022-11-06T00:00:22.980Z,99.9
2022-11-06T00:04:26.107Z,99.9
2022-11-06T00:06:23.728Z,99.9
2022-11-06T00:07:26.563Z,99.9
2022-11-06T00:09:24.204Z,99.9
2022-11-06T00:11:21.839Z,99.9
2022-11-06T00:13:19.475Z,99.9
2022-11-06T00:15:24.998Z,99.9
2022-11-06T00:17:22.633Z,99.9
2022-11-06T00:19:21.797Z,99.9
2022-11-06T00:21:19.397Z,99.9
2022-11-06T00:23:17.019Z,99.9
2022-11-06T00:25:14.650Z,99.9
2022-11-06T00:29:17.857Z,99.9
2022-11-06T00:31:15.497Z,99.9
2022-11-06T00:33:13.086Z,99.9
2022-11-06T00:35:10.716Z,99.9
2022-11-06T00:37:08.353Z,99.9
2022-11-06T00:39:05.999Z,99.9
2022-11-06T00:41:03.610Z,99.9
2022-11-06T00:43:09.171Z,99.9
2022-11-06T00:45:06.785Z,99.9
2022-11-06T00:47:04.403Z,99.9
2022-11-06T00:49:02.051Z,99.9
2022-11-06T00:50:59.678Z,99.9
2022-11-06T00:52:57.328Z,99.9
2022-11-06T00:54:54.965Z,99.9
2022-11-06T00:57:00.475Z,99.9
2022-11-06T00:58:58.109Z,99.9
2022-11-06T01:00:55.765Z,99.9
2022-11-06T01:01:58.703Z,99.9
2022-11-06T01:03:56.162Z,99.9
2022-11-06T01:05:53.797Z,99.9
2022-11-06T01:07:51.422Z,99.9
2022-11-06T01:09:56.960Z,99.9
2022-11-06T01:12:12.836Z,99.9
2022-11-06T01:13:52.210Z,99.9
2022-11-06T01:15:49.842Z,99.9
2022-11-06T01:17:47.466Z,99.9
2022-11-06T01:19:45.126Z,99.9
2022-11-06T01:21:42.743Z,99.9
2022-11-06T01:23:48.308Z,99.9
2022-11-06T01:27:43.580Z,99.9
2022-11-06T01:29:41.207Z,99.9
2022-11-06T01:31:38.818Z,99.9
2022-11-06T01:33:36.460Z,99.9
2022-11-06T01:35:34.077Z,99.9
2022-11-06T01:37:39.610Z,99.9
2022-11-06T01:39:37.261Z,99.9
2022-11-06T01:41:34.896Z,99.9
2022-11-06T01:43:32.538Z,99.9
2022-11-06T01:45:30.172Z,99.9
2022-11-06T01:47:27.829Z,99.9
2022-11-06T01:49:25.424Z,99.9
2022-11-06T01:51:30.956Z,99.9
2022-11-06T01:53:28.583Z,99.9
2022-11-06T01:55:26.208Z,99.9
2022-11-06T01:56:28.985Z,99.9
2022-11-06T01:58:26.604Z,99.9
2022-11-06T02:00:24.239Z,99.9
2022-11-06T02:02:22.053Z,99.9
2022-11-06T02:04:27.417Z,99.9
2022-11-06T02:06:25.039Z,99.9
2022-11-06T02:08:22.666Z,99.9
2022-11-06T02:10:20.277Z,99.9
2022-11-06T02:12:17.929Z,99.9
2022-11-06T02:14:15.555Z,99.9
2022-11-06T02:16:13.186Z,99.9
2022-11-06T02:18:18.750Z,99.9
2022-11-06T02:20:16.417Z,99.9
2022-11-06T02:22:14.022Z,99.9
2022-11-06T02:24:11.689Z,99.9
2022-11-06T02:26:09.313Z,99.9
2022-11-06T02:28:06.941Z,99.9
2022-11-06T02:32:10.087Z,99.9
2022-11-06T02:34:07.715Z,99.9
2022-11-06T02:36:05.355Z,99.9
2022-11-06T02:43:55.871Z,99.9
2022-11-06T02:47:59.005Z,99.9
2022-11-06T02:49:56.644Z,99.9
2022-11-06T02:52:23.606Z,99.9
2022-11-06T02:54:21.258Z,99.9
2022-11-06T02:56:18.849Z,99.9
2022-11-06T02:58:24.394Z,99.9
2022-11-06T03:00:21.999Z,99.9
2022-11-06T03:02:19.774Z,99.9
2022-11-06T03:04:17.255Z,99.9
2022-11-06T03:10:10.169Z,99.9
2022-11-06T03:12:15.697Z,99.9
2022-11-06T03:14:13.306Z,99.9
2022-11-06T03:16:10.952Z,99.9
2022-11-06T03:18:08.596Z,99.9
2022-11-06T03:20:06.227Z,99.9
2022-11-06T03:22:03.860Z,99.9
2022-11-06T03:24:01.477Z,99.9
2022-11-06T03:26:07.002Z,99.9
2022-11-06T03:28:04.624Z,99.9
2022-11-06T03:30:02.412Z,99.9
2022-11-06T03:31:59.893Z,99.9
2022-11-06T03:33:57.524Z,99.9
2022-11-06T03:39:58.318Z,99.9
2022-11-06T03:41:55.969Z,99.9
2022-11-06T03:44:56.371Z,99.9
2022-11-06T03:46:54.021Z,99.9
2022-11-06T03:48:51.630Z,99.9
2022-11-06T03:50:49.266Z,99.9
2022-11-06T03:52:54.783Z,99.9
2022-11-06T03:58:47.729Z,99.9
2022-11-06T04:00:45.308Z,99.9
2022-11-06T04:02:43.139Z,99.9
2022-11-06T04:04:40.589Z,99.9
2022-11-06T04:06:46.130Z,99.9
2022-11-06T04:08:43.769Z,99.9
2022-11-06T04:12:39.019Z,99.9
2022-11-06T04:14:36.641Z,99.9
2022-11-06T04:16:34.272Z,99.9
2022-11-06T04:18:31.875Z,99.9
2022-11-06T04:20:37.436Z,99.9
2022-11-06T04:24:32.682Z,99.9
2022-11-06T04:26:30.297Z,99.9
2022-11-06T04:28:27.929Z,99.9
2022-11-06T04:30:25.567Z,99.9
2022-11-06T04:32:23.192Z,99.9
2022-11-06T04:34:28.735Z,99.9
2022-11-06T04:36:26.476Z,99.9
2022-11-06T04:39:26.745Z,99.9
2022-11-06T04:41:24.364Z,99.9
2022-11-06T04:43:21.991Z,99.9
2022-11-06T04:45:19.612Z,99.9
2022-11-06T04:51:20.374Z,99.9
2022-11-06T04:53:18.039Z,99.9
2022-11-06T04:55:15.664Z,99.9
2022-11-06T05:01:16.580Z,99.9
2022-11-06T05:03:14.100Z,99.9
2022-11-06T05:05:11.745Z,99.9
2022-11-06T05:07:09.345Z,99.9
2022-11-06T05:09:06.957Z,99.9
2022-11-06T05:11:04.578Z,99.9
2022-11-06T05:13:02.174Z,99.9
2022-11-06T05:15:07.728Z,99.9
2022-11-06T05:17:05.360Z,99.9
2022-11-06T05:19:03.037Z,99.9
2022-11-06T05:21:00.628Z,99.9
2022-11-06T05:22:58.245Z,99.9
2022-11-06T05:24:55.880Z,99.9
2022-11-06T05:26:58.954Z,99.9
2022-11-06T05:28:58.903Z,99.9
2022-11-06T05:30:56.541Z,99.9
2022-11-06T05:32:54.182Z,99.9
2022-11-06T05:33:56.969Z,99.9
2022-11-06T05:37:52.233Z,99.9
2022-11-06T05:39:49.888Z,99.9
2022-11-06T05:41:55.416Z,99.9
2022-11-06T05:43:53.048Z,99.9
2022-11-06T05:45:50.663Z,99.9
2022-11-06T05:47:48.316Z,99.9
2022-11-06T05:49:45.952Z,99.9
2022-11-06T05:51:43.573Z,99.9
2022-11-06T05:53:41.210Z,99.9
2022-11-06T05:55:46.735Z,99.9
2022-11-06T05:57:44.347Z,99.9
2022-11-06T05:59:41.977Z,99.9
2022-11-06T06:01:41.329Z,99.9
2022-11-06T06:03:38.791Z,99.9
2022-11-06T06:05:36.428Z,99.9
2022-11-06T06:07:34.052Z,99.9
2022-11-06T06:09:39.604Z,99.9
2022-11-06T06:11:37.222Z,99.9
2022-11-06T06:13:34.874Z,99.9
2022-11-06T06:17:30.162Z,99.9
2022-11-06T06:19:27.815Z,99.9
2022-11-06T06:21:25.531Z,99.9
2022-11-06T06:23:30.952Z,99.9
2022-11-06T06:25:28.697Z,99.9
2022-11-06T06:27:26.205Z,99.9
2022-11-06T06:29:49.483Z,99.9
2022-11-06T06:33:44.721Z,99.9
2022-11-06T06:35:50.239Z,99.9
2022-11-06T06:37:47.882Z,99.9
2022-11-06T06:41:43.111Z,99.9
2022-11-06T06:45:38.380Z,99.9
2022-11-06T06:47:36.015Z,99.9
2022-11-06T06:49:41.537Z,99.9
2022-11-06T06:51:39.179Z,99.9
2022-11-06T06:55:34.449Z,99.9
2022-11-06T06:57:32.069Z,99.9
2022-11-06T06:59:29.714Z,99.9
2022-11-06T07:01:27.569Z,99.9
2022-11-06T07:03:32.868Z,99.9
2022-11-06T07:05:30.498Z,99.9
2022-11-06T07:07:28.149Z,99.9
2022-11-06T07:09:25.783Z,99.9
2022-11-06T07:11:23.420Z,99.9
2022-11-06T07:13:21.059Z,99.9
2022-11-06T07:19:21.870Z,99.9
2022-11-06T07:21:19.458Z,99.9
2022-11-06T07:22:29.523Z,99.9
2022-11-06T07:24:19.847Z,99.9
2022-11-06T07:26:17.475Z,99.9
2022-11-06T07:28:15.513Z,99.9
2022-11-06T07:30:20.628Z,99.9
2022-11-06T07:32:18.270Z,99.9
2022-11-06T07:38:11.569Z,99.9
2022-11-06T07:42:06.393Z,99.9
2022-11-06T07:44:11.937Z,99.9
2022-11-06T07:46:09.385Z,99.9
2022-11-06T07:50:04.679Z,99.9
2022-11-06T07:52:02.294Z,99.9
2022-11-06T07:53:59.928Z,99.9
2022-11-06T07:55:57.524Z,99.9
2022-11-06T07:58:03.073Z,99.9
2022-11-06T08:00:00.912Z,99.9
2022-11-06T08:01:58.456Z,99.9
2022-11-06T08:03:55.974Z,99.9
2022-11-06T08:05:53.592Z,99.9
2022-11-06T08:07:51.231Z,99.9
2022-11-06T08:11:54.378Z,99.9
2022-11-06T08:13:52.014Z,99.9
2022-11-06T08:15:49.637Z,99.9
2022-11-06T08:16:52.419Z,99.9
2022-11-06T08:18:50.085Z,99.9
2022-11-06T08:20:47.687Z,99.9
2022-11-06T08:22:45.333Z,99.9
2022-11-06T08:24:50.895Z,99.9
2022-11-06T08:26:48.504Z,99.9
2022-11-06T08:28:46.147Z,99.9
2022-11-06T08:30:43.794Z,99.9
2022-11-06T08:32:41.418Z,99.9
2022-11-06T08:34:39.059Z,99.9
2022-11-06T08:36:36.669Z,99.9
2022-11-06T08:38:42.244Z,99.9
2022-11-06T08:44:35.174Z,99.9
2022-11-06T08:46:32.776Z,99.9
2022-11-06T08:48:30.444Z,99.9
2022-11-06T08:50:28.057Z,99.9
2022-11-06T08:52:34.339Z,99.9
2022-11-06T08:54:31.256Z,99.9
2022-11-06T08:56:28.870Z,99.9
2022-11-06T08:58:26.514Z,99.9
2022-11-06T09:00:24.160Z,99.9
2022-11-06T09:02:21.851Z,99.9
2022-11-06T09:04:19.400Z,99.9
2022-11-06T09:06:24.925Z,99.9
2022-11-06T09:08:22.550Z,99.9
2022-11-06T09:10:20.174Z,99.9
2022-11-06T09:11:22.949Z,99.9
2022-11-06T09:13:20.590Z,99.9
2022-11-06T09:15:18.256Z,99.9
2022-11-06T09:17:15.861Z,99.9
2022-11-06T09:19:21.384Z,99.9
2022-11-06T09:21:19.024Z,99.9
2022-11-06T09:23:16.912Z,99.9
2022-11-06T09:25:14.255Z,99.9
2022-11-06T09:27:11.879Z,99.9
2022-11-06T09:29:09.538Z,99.9
2022-11-06T09:31:07.158Z,99.9
2022-11-06T09:33:13.947Z,99.9
2022-11-06T09:35:10.309Z,99.9
2022-11-06T09:37:07.970Z,99.9
2022-11-06T09:39:05.603Z,99.9
2022-11-06T09:41:03.244Z,99.9
2022-11-06T09:44:58.481Z,99.9
2022-11-06T09:49:01.660Z,99.9
2022-11-06T09:53:00.392Z,99.9
2022-11-06T09:54:56.552Z,99.9
2022-11-06T09:56:52.210Z,99.9
2022-11-06T09:58:49.843Z,99.9
2022-11-06T10:00:55.470Z,99.9
2022-11-06T10:02:53.079Z,99.9
2022-11-06T10:04:50.601Z,99.9
2022-11-06T10:11:12.768Z,99.9
2022-11-06T10:13:18.291Z,99.9
2022-11-06T10:15:15.916Z,99.9
2022-11-06T10:17:13.542Z,99.9
2022-11-06T10:19:11.147Z,99.9
2022-11-06T10:21:08.775Z,99.9
2022-11-06T10:23:06.428Z,99.9
2022-11-06T10:25:04.029Z,99.9
2022-11-06T10:27:09.572Z,99.9
2022-11-06T10:29:07.211Z,99.9
2022-11-06T10:31:04.827Z,99.9
2022-11-06T10:33:02.481Z,99.9
2022-11-06T10:35:00.121Z,99.9
2022-11-06T10:36:57.747Z,99.9
2022-11-06T10:38:55.369Z,99.9
2022-11-06T10:41:00.909Z,99.9
2022-11-06T10:42:58.542Z,99.8
2022-11-06T10:44:56.165Z,99.8
2022-11-06T10:46:53.796Z,99.8
2022-11-06T10:52:46.701Z,99.7
2022-11-06T10:54:52.242Z,99.5
2022-11-06T10:56:49.837Z,99.4
2022-11-06T10:58:47.476Z,99.4
2022-11-06T11:01:47.954Z,99.3
2022-11-06T11:03:45.487Z,99.3
2022-11-06T11:13:41.373Z,98.9
2022-11-06T11:15:39.002Z,98.8
2022-11-06T11:19:34.278Z,98.5
2022-11-06T11:23:37.459Z,98.4
2022-11-06T11:25:35.099Z,98.3
2022-11-06T11:27:32.753Z,98.3
2022-11-06T11:29:30.366Z,98.3
2022-11-06T11:31:28.005Z,98.3
2022-11-06T11:33:25.617Z,98.2
2022-11-06T11:35:31.163Z,98.1
2022-11-06T11:37:28.817Z,98
2022-11-06T11:39:26.480Z,97.9
2022-11-06T11:41:24.096Z,97.8
2022-11-06T11:43:23.271Z,97.7
2022-11-06T11:45:20.862Z,97.5
2022-11-06T11:47:18.465Z,97.4
2022-11-06T11:49:24.013Z,97.3
2022-11-06T11:51:21.630Z,97.3
2022-11-06T11:53:19.254Z,97.3
2022-11-06T11:54:22.050Z,97.4
2022-11-06T11:56:31.295Z,97.3
2022-11-06T11:58:17.274Z,97.3
2022-11-06T12:06:15.689Z,97
2022-11-06T12:08:13.619Z,96.9
2022-11-06T12:10:10.957Z,96.9
2022-11-06T12:12:08.579Z,96.8
2022-11-06T12:14:06.222Z,96.7
2022-11-06T12:16:11.760Z,96.5
2022-11-06T12:18:09.388Z,96.4
2022-11-06T12:20:07.031Z,96.2
2022-11-06T12:22:04.643Z,96.1
2022-11-06T12:24:02.302Z,95.9
2022-11-06T12:25:59.914Z,95.7
2022-11-06T12:27:57.539Z,95.4
2022-11-06T12:30:03.087Z,94.8
2022-11-06T12:34:06.799Z,94.1
2022-11-06T12:35:55.980Z,94
2022-11-06T12:37:53.608Z,93.9
2022-11-06T12:39:51.255Z,93.8
2022-11-06T12:41:48.905Z,93.8
2022-11-06T12:43:54.408Z,93.7
2022-11-06T12:45:52.058Z,93.7
2022-11-06T12:47:49.670Z,93.7
2022-11-06T12:48:52.510Z,93.7
2022-11-06T12:52:47.677Z,93.6
2022-11-06T12:54:45.332Z,93.4
2022-11-06T12:56:50.868Z,93.2
2022-11-06T12:58:48.527Z,93.1
2022-11-06T13:00:46.126Z,93.1
2022-11-06T13:02:43.875Z,93
2022-11-06T13:04:41.396Z,93
2022-11-06T13:06:39.051Z,93
2022-11-06T13:08:36.671Z,93
2022-11-06T13:10:42.229Z,92.8
2022-11-06T13:12:39.843Z,92.8
2022-11-06T13:16:35.119Z,92.7
2022-11-06T13:20:30.363Z,92.8
2022-11-06T13:26:31.211Z,92.6
2022-11-06T13:28:28.791Z,92.5
2022-11-06T13:30:26.443Z,92.4
2022-11-06T13:32:24.076Z,92.4
2022-11-06T13:34:21.724Z,92.4
2022-11-06T13:36:19.380Z,92.5
2022-11-06T13:38:24.912Z,92.6
2022-11-06T13:40:22.541Z,92.6
2022-11-06T13:42:20.165Z,92.6
2022-11-06T13:44:43.242Z,92.6
2022-11-06T13:46:40.894Z,92.6
2022-11-06T13:48:38.534Z,92.6
2022-11-06T13:50:44.096Z,92.8
2022-11-06T13:52:41.711Z,92.8
2022-11-06T13:54:39.375Z,93
2022-11-06T13:56:36.973Z,93.1
2022-11-06T13:58:34.600Z,93.1
2022-11-06T14:00:32.225Z,93.2
2022-11-06T14:02:29.973Z,93.2
2022-11-06T14:04:35.390Z,93.3
2022-11-06T14:08:30.631Z,93.5
2022-11-06T14:10:28.257Z,93.6
2022-11-06T14:12:25.890Z,93.8
2022-11-06T14:14:23.520Z,94
2022-11-06T14:16:21.166Z,94
2022-11-06T14:18:26.728Z,94.1
2022-11-06T14:20:24.384Z,94.1
2022-11-06T14:22:21.996Z,94
2022-11-06T14:24:19.617Z,94
2022-11-06T14:26:17.257Z,94
2022-11-06T14:28:15.024Z,93.9
2022-11-06T14:32:18.076Z,93.8
2022-11-06T14:37:16.098Z,93.7
2022-11-06T14:39:13.771Z,93.7
2022-11-06T14:41:11.376Z,93.6
2022-11-06T14:45:14.590Z,93.5
2022-11-06T14:47:12.217Z,93.4
2022-11-06T14:49:09.851Z,93.5
2022-11-06T14:51:07.451Z,93.8
2022-11-06T14:53:05.087Z,94
2022-11-06T14:57:00.378Z,94.4
2022-11-06T14:59:05.918Z,94.7
2022-11-06T15:01:03.623Z,94.8
2022-11-06T15:03:01.202Z,94.9
2022-11-06T15:04:58.846Z,95
2022-11-06T15:06:56.471Z,95.2
2022-11-06T15:08:54.100Z,95.4
2022-11-06T15:10:51.729Z,95.6
2022-11-06T15:12:57.284Z,95.9
2022-11-06T15:14:54.931Z,96
2022-11-06T15:16:52.557Z,96
2022-11-06T15:18:50.185Z,96.1
2022-11-06T15:20:51.611Z,96.4
2022-11-06T15:22:45.443Z,96.7
2022-11-06T15:26:48.611Z,98.2
2022-11-06T15:28:46.229Z,98.7
2022-11-06T15:30:43.865Z,99.1
2022-11-06T15:31:46.638Z,99.4
2022-11-06T15:33:44.291Z,99.7
2022-11-06T15:37:39.574Z,99.9
2022-11-06T15:39:45.102Z,99.9
2022-11-06T15:43:40.356Z,99.9
2022-11-06T15:45:37.985Z,99.9
2022-11-06T15:47:35.623Z,99.9
2022-11-06T15:49:33.256Z,99.9
2022-11-06T15:51:30.878Z,99.9
2022-11-06T15:53:40.768Z,99.9
2022-11-06T15:55:34.009Z,99.9
2022-11-06T15:57:31.635Z,99.9
2022-11-06T15:59:29.269Z,99.9
2022-11-06T16:01:27.002Z,99.9
2022-11-06T16:03:24.515Z,99.9
2022-11-06T16:05:22.136Z,99.9
2022-11-06T16:07:27.694Z,99.9
2022-11-06T16:09:25.306Z,99.9
2022-11-06T16:15:18.199Z,99.9
2022-11-06T16:17:15.833Z,99.9
2022-11-06T16:19:13.445Z,99.9
2022-11-06T16:21:18.970Z,99.9
2022-11-06T16:23:16.910Z,99.9
2022-11-06T16:25:14.240Z,99.9
2022-11-06T16:26:17.015Z,99.9
2022-11-06T16:30:12.244Z,99.9
2022-11-06T16:32:09.859Z,99.9
2022-11-06T16:36:13.003Z,99.9
2022-11-06T16:38:38.711Z,99.9
2022-11-06T16:40:08.244Z,99.9
2022-11-06T16:42:05.858Z,99.9
2022-11-06T16:44:03.486Z,99.9
2022-11-06T16:46:01.138Z,99.9
2022-11-06T16:48:06.639Z,99.9
2022-11-06T16:50:04.430Z,99.9
2022-11-06T16:52:01.866Z,99.9
2022-11-06T16:53:59.507Z,99.9
2022-11-06T16:55:57.126Z,99.9
2022-11-06T16:57:54.763Z,99.9
2022-11-06T16:59:52.369Z,99.9
2022-11-06T17:01:58.074Z,99.9
2022-11-06T17:03:55.516Z,99.9
2022-11-06T17:05:53.142Z,99.9
2022-11-06T17:07:50.745Z,99.9
2022-11-06T17:09:48.381Z,99.9
2022-11-06T17:11:45.997Z,99.9
2022-11-06T17:13:43.610Z,99.9
2022-11-06T17:15:49.153Z,99.9
2022-11-06T17:19:44.378Z,99.9
2022-11-06T17:22:11.327Z,99.9
2022-11-06T17:24:35.334Z,99.9
2022-11-06T17:26:08.087Z,99.9
2022-11-06T17:28:13.632Z,99.9
2022-11-06T17:30:11.269Z,99.9
2022-11-06T17:32:08.882Z,99.9
2022-11-06T17:34:06.516Z,99.9
2022-11-06T17:36:04.109Z,99.9
2022-11-06T17:38:07.003Z,99.9
2022-11-06T17:39:59.377Z,99.9
2022-11-06T17:42:04.882Z,99.9
2022-11-06T17:44:02.489Z,99.9
2022-11-06T17:46:00.115Z,99.9
2022-11-06T17:51:53.032Z,99.9
2022-11-06T17:53:50.618Z,99.9
2022-11-06T17:57:53.769Z,99.9
2022-11-06T17:59:51.398Z,99.9
2022-11-06T18:01:49.067Z,99.9
2022-11-06T18:03:46.678Z,99.9
2022-11-06T18:05:44.243Z,99.9
2022-11-06T18:13:42.609Z,99.9
2022-11-06T18:14:45.370Z,99.9
2022-11-06T18:16:44.108Z,99.9
2022-11-06T18:18:40.613Z,99.9
2022-11-06T18:20:38.223Z,99.9
2022-11-06T18:22:43.718Z,99.9
2022-11-06T18:24:41.373Z,99.9
2022-11-06T18:26:38.973Z,99.9
2022-11-06T18:28:36.550Z,99.9
2022-11-06T18:30:34.158Z,99.9
2022-11-06T18:32:31.788Z,99.9
2022-11-06T18:34:29.394Z,99.9
2022-11-06T18:36:34.925Z,99.9
2022-11-06T18:38:32.540Z,99.9
2022-11-06T18:42:27.781Z,99.9
2022-11-06T18:44:25.399Z,99.9
2022-11-06T18:46:23.071Z,99.9
2022-11-06T18:48:21.822Z,99.9
2022-11-06T18:50:26.218Z,99.9
2022-11-06T18:52:51.673Z,99.9
2022-11-06T18:54:21.429Z,99.9
2022-11-06T18:56:19.046Z,99.9
2022-11-06T19:00:14.288Z,99.9
2022-11-06T19:02:12.127Z,99.9
2022-11-06T19:04:17.476Z,99.9
2022-11-06T19:06:15.031Z,99.9
2022-11-06T19:08:12.893Z,99.9
2022-11-06T19:11:13.034Z,99.9
2022-11-06T19:13:10.620Z,99.9
2022-11-06T19:15:08.261Z,99.9
2022-11-06T19:17:13.782Z,99.9
2022-11-06T19:21:09.074Z,99.9
2022-11-06T19:23:06.672Z,99.9
2022-11-06T19:25:04.274Z,99.9
2022-11-06T19:27:01.900Z,99.9
2022-11-06T19:28:59.509Z,99.9
2022-11-06T19:31:05.018Z,99.9
2022-11-06T19:33:02.619Z,99.9
2022-11-06T19:35:00.250Z,99.9
2022-11-06T19:36:57.860Z,99.9
2022-11-06T19:38:55.481Z,99.9
2022-11-06T19:40:53.110Z,99.9
2022-11-06T19:42:50.710Z,99.9
2022-11-06T19:44:56.245Z,99.9
2022-11-06T19:46:53.840Z,99.9
2022-11-06T19:48:51.434Z,99.9
2022-11-06T19:50:59.313Z,99.9
2022-11-06T19:52:49.630Z,99.9
2022-11-06T19:54:44.293Z,99.9
2022-11-06T19:57:26.953Z,99.9
2022-11-06T19:58:47.394Z,99.9
2022-11-06T20:00:45.025Z,99.9
2022-11-06T20:02:42.759Z,99.9
2022-11-06T20:03:45.420Z,99.9
2022-11-06T20:05:43.052Z,99.9
2022-11-06T20:07:40.656Z,99.9
2022-11-06T20:09:38.291Z,99.9
2022-11-06T20:13:41.432Z,99.9
2022-11-06T20:15:39.053Z,99.9
2022-11-06T20:17:36.664Z,99.9
2022-11-06T20:19:34.283Z,99.9
2022-11-06T20:21:31.922Z,99.9
2022-11-06T20:23:29.516Z,99.9
2022-11-06T20:25:35.035Z,99.9
2022-11-06T20:27:32.661Z,99.9
2022-11-06T20:29:30.313Z,99.9
2022-11-06T20:31:27.912Z,99.9
2022-11-06T20:33:25.537Z,99.9
2022-11-06T20:35:23.159Z,99.9
2022-11-06T20:37:20.816Z,99.9
2022-11-06T20:43:21.564Z,99.9
2022-11-06T20:45:19.147Z,99.9
2022-11-06T20:47:16.790Z,99.9
2022-11-06T20:49:14.394Z,99.9
2022-11-06T20:51:11.986Z,99.9
2022-11-06T20:53:17.695Z,99.9
2022-11-06T20:55:15.148Z,99.9
2022-11-06T20:57:12.768Z,99.9
2022-11-06T20:59:39.738Z,99.9
2022-11-06T21:01:37.421Z,99.9
2022-11-06T21:03:34.935Z,99.9
2022-11-06T21:05:40.467Z,99.9
2022-11-06T21:07:38.088Z,99.9
2022-11-06T21:09:35.729Z,99.9
2022-11-06T21:11:33.344Z,99.9
2022-11-06T21:13:30.939Z,99.9
2022-11-06T21:15:28.576Z,99.9
2022-11-06T21:17:26.186Z,99.9
2022-11-06T21:19:31.739Z,99.9
2022-11-06T21:21:29.354Z,99.9
2022-11-06T21:23:26.978Z,99.9
2022-11-06T21:25:24.612Z,99.9
2022-11-06T21:35:20.651Z,99.9
2022-11-06T21:37:18.284Z,99.9
2022-11-06T21:39:15.916Z,99.9
2022-11-06T21:41:13.647Z,99.9
2022-11-06T21:43:11.393Z,99.9
2022-11-06T21:45:12.374Z,99.9
2022-11-06T21:47:14.298Z,99.9
2022-11-06T21:49:11.928Z,99.9
2022-11-06T21:51:09.553Z,99.9
2022-11-06T21:54:09.944Z,99.9
2022-11-06T21:58:05.214Z,99.9
2022-11-06T22:02:08.527Z,99.9
2022-11-06T22:08:01.278Z,99.9
2022-11-06T22:11:56.511Z,99.9
2022-11-06T22:14:02.071Z,99.9
2022-11-06T22:17:57.333Z,99.9
2022-11-06T22:19:54.923Z,99.9
2022-11-06T22:21:52.592Z,99.9
2022-11-06T22:23:50.219Z,99.9
2022-11-06T22:25:47.826Z,99.9
2022-11-06T22:29:50.998Z,99.9
2022-11-06T22:31:48.654Z,99.9
2022-11-06T22:33:52.187Z,99.9
2022-11-06T22:35:43.930Z,99.9
2022-11-06T22:37:41.553Z,99.9
2022-11-06T22:39:39.183Z,99.9
2022-11-06T22:43:42.356Z,99.9
2022-11-06T22:45:40.002Z,99.9
2022-11-06T22:46:42.747Z,99.9
2022-11-06T22:48:40.522Z,99.9
2022-11-06T22:50:38.002Z,99.9
2022-11-06T22:52:35.636Z,99.9
2022-11-06T22:54:41.164Z,99.9
2022-11-06T22:56:38.827Z,99.9
2022-11-06T22:58:36.449Z,99.9
2022-11-06T23:00:34.084Z,99.9
2022-11-06T23:02:31.764Z,99.9
2022-11-06T23:04:29.347Z,99.9
2022-11-06T23:06:28.532Z,99.9
2022-11-06T23:08:34.010Z,99.9
2022-11-06T23:10:31.628Z,99.9
2022-11-06T23:12:29.290Z,99.9
2022-11-06T23:14:26.922Z,99.9
2022-11-06T23:18:22.146Z,99.9
2022-11-06T23:20:19.795Z,99.9
2022-11-06T23:24:22.964Z,99.9
2022-11-06T23:26:20.567Z,99.9
2022-11-06T23:28:18.184Z,99.9
2022-11-06T23:30:15.851Z,99.9
2022-11-06T23:32:13.497Z,99.9
2022-11-06T23:34:11.131Z,99.9
2022-11-06T23:36:16.678Z,99.9
2022-11-06T23:38:14.321Z,99.9
2022-11-06T23:40:11.951Z,99.9
2022-11-06T23:43:12.668Z,99.9
2022-11-06T23:45:10.003Z,99.9
2022-11-06T23:47:07.655Z,99.9
2022-11-06T23:49:13.175Z,99.9
2022-11-06T23:51:10.831Z,99.9
2022-11-06T23:53:08.441Z,99.9
2022-11-06T23:55:06.082Z,99.9
2022-11-06T23:57:03.706Z,99.9
2022-11-06T23:59:01.330Z,99.9
